createdAt,value
2018-10-11T00:01:24.403Z,100354.41
2018-10-11T00:06:29.533Z,100362.56
2018-10-11T00:11:33.755Z,100360.14
2018-10-11T00:16:38.472Z,100358.05
2018-10-11T00:21:44.975Z,100357.97
2018-10-11T00:26:49.431Z,100368.44
2018-10-11T00:31:53.824Z,100354.89
2018-10-11T00:36:58.103Z,100355.22
2018-10-11T00:42:02.572Z,100356.35
2018-10-11T00:47:12.891Z,100354.38
2018-10-11T00:52:19.393Z,100358.58
2018-10-11T00:57:24.329Z,100359.14
2018-10-11T01:02:29.283Z,100348.98
2018-10-11T01:07:34.923Z,100346.29
2018-10-11T01:17:57.439Z,100319.45
2018-10-11T01:23:01.756Z,100306.36
2018-10-11T01:28:06.293Z,100326.06
2018-10-11T01:33:11.748Z,100316.92
2018-10-11T01:38:16.254Z,100310.63
2018-10-11T01:43:21.341Z,100316.23
2018-10-11T01:48:25.883Z,100330.67
2018-10-11T01:53:31.730Z,100326.42
2018-10-11T02:03:52.789Z,100308.83
2018-10-11T02:14:14.889Z,100311.61
2018-10-11T02:24:38.785Z,100299.14
2018-10-11T02:29:45.148Z,100294.64
2018-10-11T02:40:04.128Z,100282.88
2018-10-11T02:50:25.461Z,100273.12
2018-10-11T03:00:44.032Z,100254.27
2018-10-11T03:05:49.869Z,100257.03
2018-10-11T03:10:55.894Z,100242.37
2018-10-11T03:16:01.087Z,100239.28
2018-10-11T03:26:20.416Z,100231.06
2018-10-11T03:31:25.083Z,100221.35
2018-10-11T03:41:44.875Z,100197.07
2018-10-11T03:46:50.240Z,100202.51
2018-10-11T03:51:55.952Z,100209.44
2018-10-11T04:02:15.628Z,100223.84
2018-10-11T04:12:35.282Z,100211.03
2018-10-11T04:17:40.541Z,100208.36
2018-10-11T04:22:45.277Z,100215.30
2018-10-11T04:28:00.464Z,100226.85
2018-10-11T04:33:05.543Z,100224.70
2018-10-11T04:38:11.945Z,100229.49
2018-10-11T04:43:18.038Z,100211.14
2018-10-11T04:53:39.439Z,100220.97
2018-10-11T04:58:45.107Z,100216.31
2018-10-11T05:03:51.981Z,100221.88
2018-10-11T05:08:56.247Z,100224.45
2018-10-11T05:14:00.757Z,100229.92
2018-10-11T05:19:05.439Z,100219.61
2018-10-11T05:24:09.726Z,100224.47
2018-10-11T05:29:14.020Z,100222.77
2018-10-11T05:34:18.254Z,100220.56
2018-10-11T05:39:23.350Z,100218.14
2018-10-11T05:44:27.769Z,100216.80
2018-10-11T05:49:32.057Z,100217.05
2018-10-11T05:54:36.336Z,100214.83
2018-10-11T05:59:40.630Z,100218.84
2018-10-11T06:04:44.881Z,100224.58
2018-10-11T06:09:49.369Z,100225.70
2018-10-11T06:14:53.656Z,100233.94
2018-10-11T06:19:57.910Z,100235.12
2018-10-11T06:25:02.099Z,100234.60
2018-10-11T06:30:06.372Z,100232.14
2018-10-11T06:35:10.656Z,100221.52
2018-10-11T06:40:15.085Z,100218.95
2018-10-11T06:45:19.499Z,100227.59
2018-10-11T06:50:23.932Z,100227.20
2018-10-11T06:55:28.141Z,100231.39
2018-10-11T07:00:32.413Z,100255.48
2018-10-11T07:05:36.979Z,100268.66
2018-10-11T07:10:41.768Z,100263.52
2018-10-11T07:15:46.113Z,100266.06
2018-10-11T07:20:50.536Z,100262.95
2018-10-11T07:25:54.961Z,100268.59
2018-10-11T07:30:59.443Z,100288.31
2018-10-11T07:36:03.930Z,100273.90
2018-10-11T07:41:08.206Z,100283.38
2018-10-11T07:46:12.674Z,100298.59
2018-10-11T07:51:17.128Z,100296.38
2018-10-11T07:56:22.163Z,100300.47
2018-10-11T08:01:26.554Z,100288.00
2018-10-11T08:11:46.188Z,100295.33
2018-10-11T08:16:51.088Z,100299.39
2018-10-11T08:21:55.283Z,100295.86
2018-10-11T08:27:04.950Z,100289.08
2018-10-11T08:32:09.370Z,100296.03
2018-10-11T08:37:13.675Z,100307.08
2018-10-11T08:42:18.075Z,100294.39
2018-10-11T08:47:22.801Z,100289.88
2018-10-11T08:52:27.342Z,100295.64
2018-10-11T08:57:32.190Z,100295.00
2018-10-11T09:02:36.927Z,100290.50
2018-10-11T09:07:41.576Z,100280.11
2018-10-11T09:12:45.971Z,100276.98
2018-10-11T09:17:50.257Z,100275.88
2018-10-11T09:22:54.682Z,100267.37
2018-10-11T09:27:59.358Z,100269.55
2018-10-11T09:33:03.621Z,100266.25
2018-10-11T09:38:08.647Z,100266.11
2018-10-11T09:43:13.646Z,100263.02
2018-10-11T09:48:19.215Z,100270.22
2018-10-11T09:53:23.894Z,100276.40
2018-10-11T09:58:28.439Z,100276.73
2018-10-11T10:03:33.389Z,100280.72
2018-10-11T10:08:37.651Z,100284.62
2018-10-11T10:13:42.439Z,100282.48
2018-10-11T10:18:47.021Z,100271.36
2018-10-11T10:23:51.353Z,100272.89
2018-10-11T10:28:55.795Z,100270.39
2018-10-11T10:34:00.415Z,100272.16
2018-10-11T10:39:06.358Z,100274.08
2018-10-11T10:44:10.947Z,100272.06
2018-10-11T10:49:15.221Z,100263.59
2018-10-11T10:54:23.289Z,100254.84
2018-10-11T10:59:27.663Z,100248.92
2018-10-11T11:04:31.993Z,100247.47
2018-10-11T11:09:35.453Z,100249.63
2018-10-11T11:14:39.030Z,100250.52
2018-10-11T11:19:42.419Z,100248.12
2018-10-11T11:24:45.704Z,100248.92
2018-10-11T11:29:49.212Z,100235.97
2018-10-11T11:34:52.725Z,100234.43
2018-10-11T11:39:56.305Z,100229.22
2018-10-11T11:45:00.453Z,100224.39
2018-10-11T11:50:13.146Z,100219.25
2018-10-11T11:55:16.773Z,100225.93
2018-10-11T12:00:23.205Z,100225.59
2018-10-11T12:05:26.595Z,100220.80
2018-10-11T12:10:30.438Z,100223.64
2018-10-11T12:15:34.647Z,100224.23
2018-10-11T12:20:39.136Z,100210.33
2018-10-11T12:25:43.332Z,100210.96
2018-10-11T12:30:46.783Z,100200.36
2018-10-11T12:35:51.237Z,100198.31
2018-10-11T12:40:55.065Z,100199.28
2018-10-11T12:45:58.573Z,100192.32
2018-10-11T12:51:02.283Z,100190.08
2018-10-11T12:56:05.853Z,100174.77
2018-10-11T13:01:09.403Z,100177.30
2018-10-11T13:06:13.009Z,100169.05
2018-10-11T13:11:16.636Z,100157.59
2018-10-11T13:16:20.215Z,100162.20
2018-10-11T13:21:23.839Z,100155.47
2018-10-11T13:26:28.100Z,100158.23
2018-10-11T13:31:32.403Z,100154.16
2018-10-11T13:36:37.215Z,100154.86
2018-10-11T13:41:41.939Z,100160.22
2018-10-11T13:46:46.736Z,100154.91
2018-10-11T13:51:51.011Z,100143.19
2018-10-11T13:56:58.797Z,100158.81
2018-10-11T14:02:00.396Z,100149.78
2018-10-11T14:07:04.989Z,100151.78
2018-10-11T14:12:09.261Z,100155.27
2018-10-11T14:17:13.704Z,100158.34
2018-10-11T14:22:18.340Z,100156.33
2018-10-11T14:27:23.007Z,100155.20
2018-10-11T14:32:27.800Z,100149.51
2018-10-11T14:37:32.560Z,100150.02
2018-10-11T14:42:37.946Z,100158.19
2018-10-11T14:47:42.236Z,100158.17
2018-10-11T14:52:46.589Z,100159.83
2018-10-11T14:57:51.108Z,100160.48
2018-10-11T15:02:55.635Z,100147.12
2018-10-11T15:08:00.290Z,100148.73
2018-10-11T15:13:04.704Z,100156.55
2018-10-11T15:18:09.416Z,100156.55
2018-10-11T15:23:13.747Z,100163.17
2018-10-11T15:28:18.092Z,100165.16
2018-10-11T15:33:22.907Z,100157.50
2018-10-11T15:38:27.534Z,100164.98
2018-10-11T15:43:32.086Z,100165.08
2018-10-11T15:48:36.490Z,100165.09
2018-10-11T15:53:41.167Z,100159.58
2018-10-11T15:58:45.790Z,100158.07
2018-10-11T16:03:50.360Z,100155.40
2018-10-11T16:08:55.400Z,100150.44
2018-10-11T16:14:03.003Z,100155.13
2018-10-11T16:19:09.022Z,100160.60
2018-10-11T16:24:13.846Z,100162.82
2018-10-11T16:30:47.338Z,100159.89
2018-10-11T16:35:52.698Z,100173.02
2018-10-11T16:40:57.567Z,100178.05
2018-10-11T16:46:02.311Z,100187.91
2018-10-11T16:51:06.902Z,100192.70
2018-10-11T16:56:12.204Z,100191.60
2018-10-11T17:01:16.951Z,100196.94
2018-10-11T17:06:21.596Z,100199.93
2018-10-11T17:11:26.258Z,100205.63
2018-10-11T17:16:30.929Z,100214.33
2018-10-11T17:21:35.787Z,100208.42
2018-10-11T17:26:40.224Z,100213.68
2018-10-11T17:31:44.943Z,100215.62
2018-10-11T17:36:49.757Z,100213.25
2018-10-11T17:41:54.233Z,100208.60
2018-10-11T17:46:59.566Z,100214.65
2018-10-11T17:52:04.029Z,100208.30
2018-10-11T17:57:08.950Z,100210.98
2018-10-11T18:02:15.829Z,100211.34
2018-10-11T18:07:20.598Z,100221.11
2018-10-11T18:12:26.039Z,100221.56
2018-10-11T18:17:32.507Z,100224.05
2018-10-11T18:22:37.083Z,100228.66
2018-10-11T18:27:41.537Z,100227.83
2018-10-11T18:32:46.291Z,100225.25
2018-10-11T18:37:50.706Z,100227.97
2018-10-11T18:42:55.750Z,100235.84
2018-10-11T18:48:00.571Z,100240.92
2018-10-11T18:53:05.279Z,100247.58
2018-10-11T18:58:14.832Z,100253.26
2018-10-11T19:03:19.525Z,100254.20
2018-10-11T19:08:23.985Z,100251.55
2018-10-11T19:13:29.171Z,100254.95
2018-10-11T19:18:33.776Z,100259.00
2018-10-11T19:23:38.736Z,100260.11
2018-10-11T19:28:43.055Z,100256.61
2018-10-11T19:33:47.504Z,100258.48
2018-10-11T19:38:52.027Z,100260.30
2018-10-11T19:43:56.477Z,100263.64
2018-10-11T19:49:01.438Z,100261.64
2018-10-11T19:54:05.675Z,100261.22
2018-10-11T19:59:15.235Z,100272.56
2018-10-11T20:04:19.961Z,100273.83
2018-10-11T20:09:29.296Z,100271.37
2018-10-11T20:14:34.300Z,100270.02
2018-10-11T20:19:52.092Z,100272.83
2018-10-11T20:24:56.544Z,100275.98
2018-10-11T20:30:00.854Z,100281.37
2018-10-11T20:35:05.468Z,100289.80
2018-10-11T20:40:09.953Z,100294.39
2018-10-11T20:45:14.520Z,100296.39
2018-10-11T20:50:19.093Z,100307.84
2018-10-11T20:55:23.844Z,100310.88
2018-10-11T21:00:28.465Z,100310.19
2018-10-11T21:05:32.681Z,100310.52
2018-10-11T21:10:36.979Z,100315.89
2018-10-11T21:15:41.489Z,100319.03
2018-10-11T21:20:45.875Z,100326.23
2018-10-11T21:25:50.447Z,100316.66
2018-10-11T21:30:54.623Z,100319.66
2018-10-11T21:35:58.816Z,100311.43
2018-10-11T21:41:03.075Z,100317.27
2018-10-11T21:46:07.307Z,100321.78
2018-10-11T21:51:11.747Z,100322.39
2018-10-11T21:56:16.042Z,100308.80
2018-10-11T22:01:22.638Z,100306.80
2018-10-11T22:06:27.304Z,100312.43
2018-10-11T22:11:32.320Z,100316.12
2018-10-11T22:16:36.484Z,100320.69
2018-10-11T22:21:40.613Z,100324.58
2018-10-11T22:26:44.750Z,100328.62
2018-10-11T22:31:48.980Z,100319.00
2018-10-11T22:36:53.268Z,100320.45
2018-10-11T22:41:57.459Z,100322.41
2018-10-11T22:47:01.688Z,100321.31
2018-10-11T22:52:06.354Z,100322.70
2018-10-11T22:57:10.767Z,100322.95
2018-10-11T23:02:15.023Z,100326.81
2018-10-11T23:07:19.224Z,100317.86
2018-10-11T23:12:23.688Z,100319.42
2018-10-11T23:17:27.967Z,100324.62
2018-10-11T23:22:32.233Z,100329.77
2018-10-11T23:27:36.410Z,100334.41
2018-10-11T23:32:41.336Z,100328.88
2018-10-11T23:37:45.487Z,100334.30
2018-10-11T23:42:49.660Z,100335.14
2018-10-11T23:47:54.013Z,100343.44
2018-10-11T23:52:58.155Z,100349.94
2018-10-11T23:58:03.022Z,100353.55
